sensor_id;sensor_type;location;lat;lon;timestamp;P1;durP1;ratioP1;P2;durP2;ratioP2
64595;SDS011;51003;51.628;6.670;2023-06-22T00:01:21;17.30;;;11.47;;
64595;SDS011;51003;51.628;6.670;2023-06-22T00:03:49;14.23;;;10.40;;
64595;SDS011;51003;51.628;6.670;2023-06-22T00:06:15;13.03;;;10.60;;
64595;SDS011;51003;51.628;6.670;2023-06-22T00:08:40;14.53;;;10.73;;
64595;SDS011;51003;51.628;6.670;2023-06-22T00:11:06;15.60;;;10.80;;
64595;SDS011;51003;51.628;6.670;2023-06-22T00:13:31;16.30;;;10.20;;
64595;SDS011;51003;51.628;6.670;2023-06-22T00:15:57;14.37;;;10.93;;
64595;SDS011;51003;51.628;6.670;2023-06-22T00:18:22;12.13;;;10.13;;
64595;SDS011;51003;51.628;6.670;2023-06-22T00:20:52;13.00;;;10.53;;
64595;SDS011;51003;51.628;6.670;2023-06-22T00:23:21;13.43;;;10.87;;
64595;SDS011;51003;51.628;6.670;2023-06-22T00:25:48;16.97;;;11.50;;
64595;SDS011;51003;51.628;6.670;2023-06-22T00:28:14;13.13;;;10.60;;
64595;SDS011;51003;51.628;6.670;2023-06-22T00:30:39;16.13;;;11.33;;
64595;SDS011;51003;51.628;6.670;2023-06-22T00:33:05;16.07;;;11.60;;
64595;SDS011;51003;51.628;6.670;2023-06-22T00:35:32;19.83;;;11.73;;
64595;SDS011;51003;51.628;6.670;2023-06-22T00:37:58;16.40;;;12.57;;
64595;SDS011;51003;51.628;6.670;2023-06-22T00:40:29;14.83;;;12.07;;
64595;SDS011;51003;51.628;6.670;2023-06-22T00:42:56;16.70;;;12.17;;
64595;SDS011;51003;51.628;6.670;2023-06-22T00:45:21;15.50;;;11.53;;
64595;SDS011;51003;51.628;6.670;2023-06-22T00:47:48;14.13;;;11.40;;
64595;SDS011;51003;51.628;6.670;2023-06-22T00:50:21;15.67;;;11.73;;
64595;SDS011;51003;51.628;6.670;2023-06-22T00:52:51;15.20;;;12.70;;
64595;SDS011;51003;51.628;6.670;2023-06-22T00:55:17;17.43;;;12.20;;
64595;SDS011;51003;51.628;6.670;2023-06-22T00:57:44;17.93;;;12.00;;
64595;SDS011;51003;51.628;6.670;2023-06-22T01:00:11;15.40;;;11.93;;
64595;SDS011;51003;51.628;6.670;2023-06-22T01:02:42;16.43;;;12.33;;
64595;SDS011;51003;51.628;6.670;2023-06-22T01:05:10;21.03;;;12.10;;
64595;SDS011;51003;51.628;6.670;2023-06-22T01:07:44;18.70;;;13.33;;
64595;SDS011;51003;51.628;6.670;2023-06-22T01:13:07;16.30;;;12.80;;
64595;SDS011;51003;51.628;6.670;2023-06-22T01:15:44;20.10;;;13.53;;
64595;SDS011;51003;51.628;6.670;2023-06-22T01:18:11;19.60;;;13.53;;
64595;SDS011;51003;51.628;6.670;2023-06-22T01:20:38;21.00;;;14.10;;
64595;SDS011;51003;51.628;6.670;2023-06-22T01:31:10;20.77;;;14.07;;
64595;SDS011;51003;51.628;6.670;2023-06-22T01:33:39;19.27;;;13.70;;
64595;SDS011;51003;51.628;6.670;2023-06-22T01:36:07;16.60;;;12.93;;
64595;SDS011;51003;51.628;6.670;2023-06-22T01:38:34;19.93;;;13.63;;
64595;SDS011;51003;51.628;6.670;2023-06-22T01:41:00;16.10;;;13.60;;
64595;SDS011;51003;51.628;6.670;2023-06-22T01:43:26;15.77;;;12.50;;
64595;SDS011;51003;51.628;6.670;2023-06-22T01:45:52;17.00;;;12.97;;
64595;SDS011;51003;51.628;6.670;2023-06-22T01:48:19;18.40;;;14.10;;
64595;SDS011;51003;51.628;6.670;2023-06-22T01:50:44;19.20;;;12.93;;
64595;SDS011;51003;51.628;6.670;2023-06-22T01:53:10;19.10;;;12.63;;
64595;SDS011;51003;51.628;6.670;2023-06-22T01:55:36;15.57;;;12.80;;
64595;SDS011;51003;51.628;6.670;2023-06-22T01:58:01;17.00;;;13.00;;
64595;SDS011;51003;51.628;6.670;2023-06-22T02:00:26;17.10;;;12.77;;
64595;SDS011;51003;51.628;6.670;2023-06-22T02:02:55;18.33;;;13.57;;
64595;SDS011;51003;51.628;6.670;2023-06-22T02:05:37;18.43;;;13.83;;
64595;SDS011;51003;51.628;6.670;2023-06-22T02:08:20;15.33;;;12.70;;
64595;SDS011;51003;51.628;6.670;2023-06-22T02:10:50;16.73;;;13.30;;
64595;SDS011;51003;51.628;6.670;2023-06-22T02:13:17;19.37;;;14.03;;
64595;SDS011;51003;51.628;6.670;2023-06-22T02:15:43;17.40;;;13.97;;
64595;SDS011;51003;51.628;6.670;2023-06-22T02:18:09;20.13;;;14.43;;
64595;SDS011;51003;51.628;6.670;2023-06-22T02:20:37;19.57;;;13.93;;
64595;SDS011;51003;51.628;6.670;2023-06-22T02:23:03;18.73;;;13.97;;
64595;SDS011;51003;51.628;6.670;2023-06-22T02:25:28;19.13;;;13.90;;
64595;SDS011;51003;51.628;6.670;2023-06-22T02:27:54;20.03;;;14.00;;
64595;SDS011;51003;51.628;6.670;2023-06-22T02:30:19;22.73;;;15.90;;
64595;SDS011;51003;51.628;6.670;2023-06-22T02:32:44;18.97;;;13.80;;
64595;SDS011;51003;51.628;6.670;2023-06-22T02:35:10;22.60;;;15.10;;
64595;SDS011;51003;51.628;6.670;2023-06-22T02:37:36;19.90;;;14.10;;
64595;SDS011;51003;51.628;6.670;2023-06-22T02:40:07;19.50;;;14.30;;
64595;SDS011;51003;51.628;6.670;2023-06-22T02:42:33;20.43;;;15.30;;
64595;SDS011;51003;51.628;6.670;2023-06-22T02:44:59;19.33;;;14.70;;
64595;SDS011;51003;51.628;6.670;2023-06-22T02:47:25;20.53;;;15.13;;
64595;SDS011;51003;51.628;6.670;2023-06-22T02:49:50;18.53;;;13.90;;
64595;SDS011;51003;51.628;6.670;2023-06-22T02:52:16;18.03;;;14.60;;
64595;SDS011;51003;51.628;6.670;2023-06-22T02:54:41;19.97;;;15.00;;
64595;SDS011;51003;51.628;6.670;2023-06-22T02:57:06;17.37;;;14.30;;
64595;SDS011;51003;51.628;6.670;2023-06-22T02:59:32;20.27;;;14.90;;
64595;SDS011;51003;51.628;6.670;2023-06-22T03:01:57;19.27;;;14.93;;
64595;SDS011;51003;51.628;6.670;2023-06-22T03:04:23;23.97;;;15.73;;
64595;SDS011;51003;51.628;6.670;2023-06-22T03:06:48;21.60;;;15.40;;
64595;SDS011;51003;51.628;6.670;2023-06-22T03:09:16;19.90;;;15.43;;
64595;SDS011;51003;51.628;6.670;2023-06-22T03:11:41;21.63;;;15.83;;
64595;SDS011;51003;51.628;6.670;2023-06-22T03:14:07;20.57;;;14.97;;
64595;SDS011;51003;51.628;6.670;2023-06-22T03:16:32;22.50;;;15.60;;
64595;SDS011;51003;51.628;6.670;2023-06-22T03:18:58;21.43;;;15.50;;
64595;SDS011;51003;51.628;6.670;2023-06-22T03:21:26;20.67;;;15.50;;
64595;SDS011;51003;51.628;6.670;2023-06-22T03:23:52;20.93;;;14.70;;
64595;SDS011;51003;51.628;6.670;2023-06-22T03:26:18;25.10;;;15.00;;
64595;SDS011;51003;51.628;6.670;2023-06-22T03:28:44;19.53;;;15.07;;
64595;SDS011;51003;51.628;6.670;2023-06-22T03:31:10;24.57;;;16.00;;
64595;SDS011;51003;51.628;6.670;2023-06-22T03:33:35;19.83;;;15.23;;
64595;SDS011;51003;51.628;6.670;2023-06-22T03:36:01;27.40;;;16.37;;
64595;SDS011;51003;51.628;6.670;2023-06-22T03:38:26;23.20;;;16.60;;
64595;SDS011;51003;51.628;6.670;2023-06-22T03:40:52;20.27;;;15.37;;
64595;SDS011;51003;51.628;6.670;2023-06-22T03:43:17;23.13;;;15.93;;
64595;SDS011;51003;51.628;6.670;2023-06-22T03:45:43;23.47;;;16.60;;
64595;SDS011;51003;51.628;6.670;2023-06-22T03:48:10;20.90;;;16.17;;
64595;SDS011;51003;51.628;6.670;2023-06-22T03:50:36;20.13;;;15.77;;
64595;SDS011;51003;51.628;6.670;2023-06-22T03:53:02;21.30;;;16.30;;
64595;SDS011;51003;51.628;6.670;2023-06-22T03:55:28;26.17;;;16.40;;
64595;SDS011;51003;51.628;6.670;2023-06-22T03:57:55;20.90;;;16.13;;
64595;SDS011;51003;51.628;6.670;2023-06-22T04:00:22;20.60;;;16.43;;
64595;SDS011;51003;51.628;6.670;2023-06-22T04:02:50;23.03;;;17.33;;
64595;SDS011;51003;51.628;6.670;2023-06-22T04:05:16;23.13;;;15.93;;
64595;SDS011;51003;51.628;6.670;2023-06-22T04:07:44;23.13;;;17.13;;
64595;SDS011;51003;51.628;6.670;2023-06-22T04:10:10;24.13;;;16.97;;
64595;SDS011;51003;51.628;6.670;2023-06-22T04:12:35;23.43;;;17.23;;
64595;SDS011;51003;51.628;6.670;2023-06-22T04:15:01;24.10;;;18.00;;
64595;SDS011;51003;51.628;6.670;2023-06-22T04:17:27;21.40;;;16.40;;
64595;SDS011;51003;51.628;6.670;2023-06-22T04:19:52;23.40;;;16.40;;
64595;SDS011;51003;51.628;6.670;2023-06-22T04:22:18;23.90;;;17.47;;
64595;SDS011;51003;51.628;6.670;2023-06-22T04:24:44;22.10;;;17.10;;
64595;SDS011;51003;51.628;6.670;2023-06-22T04:27:09;25.33;;;17.20;;
64595;SDS011;51003;51.628;6.670;2023-06-22T04:29:35;27.80;;;17.57;;
64595;SDS011;51003;51.628;6.670;2023-06-22T04:32:00;21.53;;;16.03;;
64595;SDS011;51003;51.628;6.670;2023-06-22T04:34:30;23.50;;;16.37;;
64595;SDS011;51003;51.628;6.670;2023-06-22T04:36:55;21.30;;;15.87;;
64595;SDS011;51003;51.628;6.670;2023-06-22T04:39:21;21.27;;;16.30;;
64595;SDS011;51003;51.628;6.670;2023-06-22T04:41:47;26.27;;;16.67;;
64595;SDS011;51003;51.628;6.670;2023-06-22T04:44:13;23.63;;;16.30;;
64595;SDS011;51003;51.628;6.670;2023-06-22T04:46:54;24.53;;;17.50;;
64595;SDS011;51003;51.628;6.670;2023-06-22T04:49:28;21.10;;;16.27;;
64595;SDS011;51003;51.628;6.670;2023-06-22T04:51:58;22.30;;;16.37;;
64595;SDS011;51003;51.628;6.670;2023-06-22T04:54:23;21.20;;;16.53;;
64595;SDS011;51003;51.628;6.670;2023-06-22T04:56:49;26.30;;;15.87;;
64595;SDS011;51003;51.628;6.670;2023-06-22T04:59:21;27.77;;;17.60;;
64595;SDS011;51003;51.628;6.670;2023-06-22T05:01:56;23.57;;;17.50;;
64595;SDS011;51003;51.628;6.670;2023-06-22T05:04:23;24.60;;;17.00;;
64595;SDS011;51003;51.628;6.670;2023-06-22T05:06:49;24.13;;;17.43;;
64595;SDS011;51003;51.628;6.670;2023-06-22T05:09:15;22.20;;;15.90;;
64595;SDS011;51003;51.628;6.670;2023-06-22T05:11:42;21.40;;;15.80;;
64595;SDS011;51003;51.628;6.670;2023-06-22T05:14:07;22.00;;;16.70;;
64595;SDS011;51003;51.628;6.670;2023-06-22T05:16:32;22.30;;;16.13;;
64595;SDS011;51003;51.628;6.670;2023-06-22T05:18:58;22.73;;;17.50;;
64595;SDS011;51003;51.628;6.670;2023-06-22T05:21:24;26.07;;;16.37;;
64595;SDS011;51003;51.628;6.670;2023-06-22T05:23:51;22.67;;;17.20;;
64595;SDS011;51003;51.628;6.670;2023-06-22T05:26:17;21.87;;;16.90;;
64595;SDS011;51003;51.628;6.670;2023-06-22T05:28:43;24.07;;;17.13;;
64595;SDS011;51003;51.628;6.670;2023-06-22T05:31:11;24.30;;;16.63;;
64595;SDS011;51003;51.628;6.670;2023-06-22T05:33:38;22.53;;;16.10;;
64595;SDS011;51003;51.628;6.670;2023-06-22T05:36:03;26.90;;;16.37;;
64595;SDS011;51003;51.628;6.670;2023-06-22T05:38:28;24.33;;;16.70;;
64595;SDS011;51003;51.628;6.670;2023-06-22T05:40:54;28.27;;;15.93;;
64595;SDS011;51003;51.628;6.670;2023-06-22T05:43:19;22.97;;;16.40;;
64595;SDS011;51003;51.628;6.670;2023-06-22T05:45:45;21.80;;;15.20;;
64595;SDS011;51003;51.628;6.670;2023-06-22T05:48:10;25.20;;;14.17;;
64595;SDS011;51003;51.628;6.670;2023-06-22T05:50:36;19.60;;;14.83;;
64595;SDS011;51003;51.628;6.670;2023-06-22T05:53:02;18.87;;;15.63;;
64595;SDS011;51003;51.628;6.670;2023-06-22T05:55:27;17.83;;;14.10;;
64595;SDS011;51003;51.628;6.670;2023-06-22T05:57:52;21.57;;;15.73;;
64595;SDS011;51003;51.628;6.670;2023-06-22T06:00:18;21.90;;;16.90;;
64595;SDS011;51003;51.628;6.670;2023-06-22T06:02:44;21.53;;;16.10;;
64595;SDS011;51003;51.628;6.670;2023-06-22T06:05:13;20.77;;;15.37;;
64595;SDS011;51003;51.628;6.670;2023-06-22T06:07:39;20.23;;;14.70;;
64595;SDS011;51003;51.628;6.670;2023-06-22T06:10:05;18.47;;;14.60;;
64595;SDS011;51003;51.628;6.670;2023-06-22T06:12:31;21.00;;;16.43;;
64595;SDS011;51003;51.628;6.670;2023-06-22T06:14:57;19.13;;;15.07;;
64595;SDS011;51003;51.628;6.670;2023-06-22T06:17:22;20.13;;;15.50;;
64595;SDS011;51003;51.628;6.670;2023-06-22T06:19:48;19.20;;;15.20;;
64595;SDS011;51003;51.628;6.670;2023-06-22T06:22:13;21.10;;;15.53;;
64595;SDS011;51003;51.628;6.670;2023-06-22T06:24:38;23.60;;;16.20;;
64595;SDS011;51003;51.628;6.670;2023-06-22T06:27:04;19.27;;;14.80;;
64595;SDS011;51003;51.628;6.670;2023-06-22T06:29:30;20.53;;;15.60;;
64595;SDS011;51003;51.628;6.670;2023-06-22T06:31:55;21.50;;;16.73;;
64595;SDS011;51003;51.628;6.670;2023-06-22T06:34:21;22.20;;;15.77;;
64595;SDS011;51003;51.628;6.670;2023-06-22T06:36:47;20.73;;;16.70;;
64595;SDS011;51003;51.628;6.670;2023-06-22T06:39:12;19.70;;;15.93;;
64595;SDS011;51003;51.628;6.670;2023-06-22T06:41:38;22.47;;;16.20;;
64595;SDS011;51003;51.628;6.670;2023-06-22T06:44:03;19.73;;;15.10;;
64595;SDS011;51003;51.628;6.670;2023-06-22T06:46:28;22.50;;;16.30;;
64595;SDS011;51003;51.628;6.670;2023-06-22T06:48:54;25.20;;;17.20;;
64595;SDS011;51003;51.628;6.670;2023-06-22T06:51:19;23.73;;;17.37;;
64595;SDS011;51003;51.628;6.670;2023-06-22T06:53:45;21.57;;;16.27;;
64595;SDS011;51003;51.628;6.670;2023-06-22T06:56:10;19.50;;;15.40;;
64595;SDS011;51003;51.628;6.670;2023-06-22T06:58:35;23.20;;;18.07;;
64595;SDS011;51003;51.628;6.670;2023-06-22T07:01:01;21.53;;;16.10;;
64595;SDS011;51003;51.628;6.670;2023-06-22T07:03:28;25.43;;;17.40;;
64595;SDS011;51003;51.628;6.670;2023-06-22T07:05:53;27.53;;;17.57;;
64595;SDS011;51003;51.628;6.670;2023-06-22T07:08:18;24.27;;;16.10;;
64595;SDS011;51003;51.628;6.670;2023-06-22T07:10:44;23.97;;;16.87;;
64595;SDS011;51003;51.628;6.670;2023-06-22T07:13:09;27.43;;;16.83;;
64595;SDS011;51003;51.628;6.670;2023-06-22T07:15:34;24.50;;;15.90;;
64595;SDS011;51003;51.628;6.670;2023-06-22T07:18:00;23.63;;;17.33;;
64595;SDS011;51003;51.628;6.670;2023-06-22T07:20:25;21.10;;;16.60;;
64595;SDS011;51003;51.628;6.670;2023-06-22T07:22:51;22.30;;;17.13;;
64595;SDS011;51003;51.628;6.670;2023-06-22T07:25:16;21.43;;;15.70;;
64595;SDS011;51003;51.628;6.670;2023-06-22T07:27:46;22.13;;;15.90;;
64595;SDS011;51003;51.628;6.670;2023-06-22T07:30:22;22.53;;;16.63;;
64595;SDS011;51003;51.628;6.670;2023-06-22T07:32:48;21.73;;;16.67;;
64595;SDS011;51003;51.628;6.670;2023-06-22T07:35:13;27.20;;;16.73;;
64595;SDS011;51003;51.628;6.670;2023-06-22T07:37:38;25.37;;;15.47;;
64595;SDS011;51003;51.628;6.670;2023-06-22T07:40:04;21.67;;;16.13;;
64595;SDS011;51003;51.628;6.670;2023-06-22T07:42:31;21.63;;;16.37;;
64595;SDS011;51003;51.628;6.670;2023-06-22T07:44:57;24.30;;;16.50;;
64595;SDS011;51003;51.628;6.670;2023-06-22T07:47:23;21.60;;;15.53;;
64595;SDS011;51003;51.628;6.670;2023-06-22T07:49:51;21.50;;;16.40;;
64595;SDS011;51003;51.628;6.670;2023-06-22T07:52:17;20.97;;;16.00;;
64595;SDS011;51003;51.628;6.670;2023-06-22T07:54:42;24.87;;;15.33;;
64595;SDS011;51003;51.628;6.670;2023-06-22T07:57:09;20.30;;;15.47;;
64595;SDS011;51003;51.628;6.670;2023-06-22T07:59:35;20.80;;;15.93;;
64595;SDS011;51003;51.628;6.670;2023-06-22T08:02:00;22.03;;;17.17;;
64595;SDS011;51003;51.628;6.670;2023-06-22T08:04:29;19.43;;;15.60;;
64595;SDS011;51003;51.628;6.670;2023-06-22T08:06:56;19.47;;;14.57;;
64595;SDS011;51003;51.628;6.670;2023-06-22T08:09:21;19.93;;;15.00;;
64595;SDS011;51003;51.628;6.670;2023-06-22T08:11:47;19.90;;;15.10;;
64595;SDS011;51003;51.628;6.670;2023-06-22T08:14:14;20.00;;;15.40;;
64595;SDS011;51003;51.628;6.670;2023-06-22T08:16:41;18.37;;;15.17;;
64595;SDS011;51003;51.628;6.670;2023-06-22T08:19:06;19.73;;;15.27;;
64595;SDS011;51003;51.628;6.670;2023-06-22T08:21:32;18.10;;;14.70;;
64595;SDS011;51003;51.628;6.670;2023-06-22T08:23:58;18.83;;;14.07;;
64595;SDS011;51003;51.628;6.670;2023-06-22T08:26:23;20.13;;;16.20;;
64595;SDS011;51003;51.628;6.670;2023-06-22T08:28:49;19.03;;;13.77;;
64595;SDS011;51003;51.628;6.670;2023-06-22T08:31:15;17.33;;;14.20;;
64595;SDS011;51003;51.628;6.670;2023-06-22T08:33:40;20.77;;;14.17;;
64595;SDS011;51003;51.628;6.670;2023-06-22T08:36:08;19.10;;;15.23;;
64595;SDS011;51003;51.628;6.670;2023-06-22T08:38:35;17.70;;;14.13;;
64595;SDS011;51003;51.628;6.670;2023-06-22T08:41:01;17.53;;;13.90;;
64595;SDS011;51003;51.628;6.670;2023-06-22T08:43:26;19.03;;;14.10;;
64595;SDS011;51003;51.628;6.670;2023-06-22T08:45:51;18.27;;;14.07;;
64595;SDS011;51003;51.628;6.670;2023-06-22T08:48:17;21.93;;;15.33;;
64595;SDS011;51003;51.628;6.670;2023-06-22T08:50:42;18.73;;;14.83;;
64595;SDS011;51003;51.628;6.670;2023-06-22T08:53:08;18.20;;;14.30;;
64595;SDS011;51003;51.628;6.670;2023-06-22T08:55:33;19.40;;;14.90;;
64595;SDS011;51003;51.628;6.670;2023-06-22T08:57:59;19.90;;;14.13;;
64595;SDS011;51003;51.628;6.670;2023-06-22T09:00:24;17.90;;;14.30;;
64595;SDS011;51003;51.628;6.670;2023-06-22T09:02:50;18.63;;;15.00;;
64595;SDS011;51003;51.628;6.670;2023-06-22T09:05:15;21.00;;;14.40;;
64595;SDS011;51003;51.628;6.670;2023-06-22T09:07:41;21.03;;;13.90;;
64595;SDS011;51003;51.628;6.670;2023-06-22T09:10:06;19.23;;;13.60;;
64595;SDS011;51003;51.628;6.670;2023-06-22T09:12:33;22.20;;;14.80;;
64595;SDS011;51003;51.628;6.670;2023-06-22T09:14:59;18.50;;;14.40;;
64595;SDS011;51003;51.628;6.670;2023-06-22T09:17:26;17.00;;;13.80;;
64595;SDS011;51003;51.628;6.670;2023-06-22T09:19:51;18.03;;;14.90;;
64595;SDS011;51003;51.628;6.670;2023-06-22T09:22:17;19.80;;;14.87;;
64595;SDS011;51003;51.628;6.670;2023-06-22T09:24:43;20.10;;;15.37;;
64595;SDS011;51003;51.628;6.670;2023-06-22T09:27:08;19.60;;;14.97;;
64595;SDS011;51003;51.628;6.670;2023-06-22T09:29:34;22.97;;;15.73;;
64595;SDS011;51003;51.628;6.670;2023-06-22T09:31:59;20.63;;;15.20;;
64595;SDS011;51003;51.628;6.670;2023-06-22T09:34:25;20.17;;;15.90;;
64595;SDS011;51003;51.628;6.670;2023-06-22T09:36:51;18.30;;;14.80;;
64595;SDS011;51003;51.628;6.670;2023-06-22T09:39:17;24.33;;;15.70;;
64595;SDS011;51003;51.628;6.670;2023-06-22T09:41:43;20.27;;;15.57;;
64595;SDS011;51003;51.628;6.670;2023-06-22T09:44:09;18.23;;;14.40;;
64595;SDS011;51003;51.628;6.670;2023-06-22T09:46:34;21.30;;;15.30;;
64595;SDS011;51003;51.628;6.670;2023-06-22T09:49:00;23.53;;;16.67;;
64595;SDS011;51003;51.628;6.670;2023-06-22T09:51:25;23.13;;;16.30;;
64595;SDS011;51003;51.628;6.670;2023-06-22T09:53:51;19.43;;;15.60;;
64595;SDS011;51003;51.628;6.670;2023-06-22T09:56:17;19.30;;;15.27;;
64595;SDS011;51003;51.628;6.670;2023-06-22T09:58:42;20.43;;;15.77;;
64595;SDS011;51003;51.628;6.670;2023-06-22T10:01:09;20.07;;;16.03;;
64595;SDS011;51003;51.628;6.670;2023-06-22T10:03:35;21.90;;;16.67;;
64595;SDS011;51003;51.628;6.670;2023-06-22T10:06:01;24.10;;;16.47;;
64595;SDS011;51003;51.628;6.670;2023-06-22T10:08:26;16.57;;;14.03;;
64595;SDS011;51003;51.628;6.670;2023-06-22T10:10:52;20.50;;;15.97;;
64595;SDS011;51003;51.628;6.670;2023-06-22T10:13:18;24.93;;;16.20;;
64595;SDS011;51003;51.628;6.670;2023-06-22T10:15:44;18.77;;;15.30;;
64595;SDS011;51003;51.628;6.670;2023-06-22T10:18:14;20.23;;;16.00;;
64595;SDS011;51003;51.628;6.670;2023-06-22T10:20:41;23.67;;;16.90;;
64595;SDS011;51003;51.628;6.670;2023-06-22T10:23:06;23.13;;;16.70;;
64595;SDS011;51003;51.628;6.670;2023-06-22T10:25:32;21.97;;;16.60;;
64595;SDS011;51003;51.628;6.670;2023-06-22T10:27:57;22.97;;;16.77;;
64595;SDS011;51003;51.628;6.670;2023-06-22T10:30:23;20.27;;;16.23;;
64595;SDS011;51003;51.628;6.670;2023-06-22T10:32:48;22.40;;;16.93;;
64595;SDS011;51003;51.628;6.670;2023-06-22T10:35:14;22.80;;;16.27;;
64595;SDS011;51003;51.628;6.670;2023-06-22T10:37:41;28.20;;;17.30;;
64595;SDS011;51003;51.628;6.670;2023-06-22T10:40:08;19.90;;;16.50;;
64595;SDS011;51003;51.628;6.670;2023-06-22T10:42:34;24.77;;;18.10;;
64595;SDS011;51003;51.628;6.670;2023-06-22T10:44:59;23.17;;;17.23;;
64595;SDS011;51003;51.628;6.670;2023-06-22T10:47:24;22.67;;;16.77;;
64595;SDS011;51003;51.628;6.670;2023-06-22T10:49:50;24.40;;;17.00;;
64595;SDS011;51003;51.628;6.670;2023-06-22T10:52:15;21.20;;;14.80;;
64595;SDS011;51003;51.628;6.670;2023-06-22T10:54:40;21.47;;;16.97;;
64595;SDS011;51003;51.628;6.670;2023-06-22T10:57:06;19.60;;;16.47;;
64595;SDS011;51003;51.628;6.670;2023-06-22T10:59:31;20.73;;;17.07;;
64595;SDS011;51003;51.628;6.670;2023-06-22T11:01:57;21.20;;;16.90;;
64595;SDS011;51003;51.628;6.670;2023-06-22T11:04:23;19.90;;;16.30;;
64595;SDS011;51003;51.628;6.670;2023-06-22T11:06:49;24.63;;;17.00;;
64595;SDS011;51003;51.628;6.670;2023-06-22T11:09:14;22.70;;;16.57;;
64595;SDS011;51003;51.628;6.670;2023-06-22T11:11:45;19.43;;;16.00;;
64595;SDS011;51003;51.628;6.670;2023-06-22T11:14:11;19.50;;;16.13;;
64595;SDS011;51003;51.628;6.670;2023-06-22T11:16:37;20.27;;;16.23;;
64595;SDS011;51003;51.628;6.670;2023-06-22T11:19:02;22.40;;;17.00;;
64595;SDS011;51003;51.628;6.670;2023-06-22T11:21:29;20.97;;;16.00;;
64595;SDS011;51003;51.628;6.670;2023-06-22T11:23:55;19.47;;;15.73;;
64595;SDS011;51003;51.628;6.670;2023-06-22T11:26:20;19.80;;;16.03;;
64595;SDS011;51003;51.628;6.670;2023-06-22T11:28:46;19.20;;;14.90;;
64595;SDS011;51003;51.628;6.670;2023-06-22T11:31:11;23.50;;;17.70;;
64595;SDS011;51003;51.628;6.670;2023-06-22T11:33:37;21.27;;;17.23;;
64595;SDS011;51003;51.628;6.670;2023-06-22T11:36:02;22.87;;;16.97;;
64595;SDS011;51003;51.628;6.670;2023-06-22T11:38:28;24.80;;;17.60;;
64595;SDS011;51003;51.628;6.670;2023-06-22T11:40:53;20.07;;;15.90;;
64595;SDS011;51003;51.628;6.670;2023-06-22T11:43:19;17.73;;;14.90;;
64595;SDS011;51003;51.628;6.670;2023-06-22T11:45:44;22.83;;;16.97;;
64595;SDS011;51003;51.628;6.670;2023-06-22T11:48:10;21.80;;;16.70;;
64595;SDS011;51003;51.628;6.670;2023-06-22T11:50:35;21.30;;;16.90;;
64595;SDS011;51003;51.628;6.670;2023-06-22T11:53:01;23.93;;;17.43;;
64595;SDS011;51003;51.628;6.670;2023-06-22T11:55:28;22.37;;;17.73;;
64595;SDS011;51003;51.628;6.670;2023-06-22T11:57:54;23.90;;;17.70;;
64595;SDS011;51003;51.628;6.670;2023-06-22T12:00:21;28.43;;;18.33;;
64595;SDS011;51003;51.628;6.670;2023-06-22T12:02:48;27.43;;;18.83;;
64595;SDS011;51003;51.628;6.670;2023-06-22T12:05:14;27.73;;;20.07;;
64595;SDS011;51003;51.628;6.670;2023-06-22T12:07:39;28.00;;;18.30;;
64595;SDS011;51003;51.628;6.670;2023-06-22T12:10:05;38.43;;;21.40;;
64595;SDS011;51003;51.628;6.670;2023-06-22T12:12:30;31.23;;;21.07;;
64595;SDS011;51003;51.628;6.670;2023-06-22T12:14:56;26.13;;;19.93;;
64595;SDS011;51003;51.628;6.670;2023-06-22T12:17:21;30.37;;;21.43;;
64595;SDS011;51003;51.628;6.670;2023-06-22T12:19:46;27.10;;;20.53;;
64595;SDS011;51003;51.628;6.670;2023-06-22T12:22:12;28.07;;;21.33;;
64595;SDS011;51003;51.628;6.670;2023-06-22T12:24:37;30.70;;;21.67;;
64595;SDS011;51003;51.628;6.670;2023-06-22T12:27:02;30.10;;;20.80;;
64595;SDS011;51003;51.628;6.670;2023-06-22T12:29:28;29.70;;;22.03;;
64595;SDS011;51003;51.628;6.670;2023-06-22T12:31:53;33.07;;;23.50;;
64595;SDS011;51003;51.628;6.670;2023-06-22T12:34:19;30.23;;;22.53;;
64595;SDS011;51003;51.628;6.670;2023-06-22T12:36:44;33.50;;;24.33;;
64595;SDS011;51003;51.628;6.670;2023-06-22T12:39:11;27.87;;;21.50;;
64595;SDS011;51003;51.628;6.670;2023-06-22T12:41:36;33.77;;;24.23;;
64595;SDS011;51003;51.628;6.670;2023-06-22T12:44:02;28.70;;;22.10;;
64595;SDS011;51003;51.628;6.670;2023-06-22T12:46:27;30.50;;;22.87;;
64595;SDS011;51003;51.628;6.670;2023-06-22T12:48:52;31.47;;;23.13;;
64595;SDS011;51003;51.628;6.670;2023-06-22T12:51:21;27.37;;;22.33;;
64595;SDS011;51003;51.628;6.670;2023-06-22T12:53:47;26.43;;;21.40;;
64595;SDS011;51003;51.628;6.670;2023-06-22T12:56:12;27.83;;;22.40;;
64595;SDS011;51003;51.628;6.670;2023-06-22T12:58:38;28.30;;;22.67;;
64595;SDS011;51003;51.628;6.670;2023-06-22T13:01:03;26.93;;;21.30;;
64595;SDS011;51003;51.628;6.670;2023-06-22T13:03:28;31.13;;;21.23;;
64595;SDS011;51003;51.628;6.670;2023-06-22T13:05:54;27.83;;;22.00;;
64595;SDS011;51003;51.628;6.670;2023-06-22T13:08:19;26.60;;;22.10;;
64595;SDS011;51003;51.628;6.670;2023-06-22T13:10:45;28.20;;;22.13;;
64595;SDS011;51003;51.628;6.670;2023-06-22T13:13:10;27.03;;;21.63;;
64595;SDS011;51003;51.628;6.670;2023-06-22T13:15:36;26.27;;;21.10;;
64595;SDS011;51003;51.628;6.670;2023-06-22T13:18:01;26.60;;;21.40;;
64595;SDS011;51003;51.628;6.670;2023-06-22T13:20:28;24.80;;;20.80;;
64595;SDS011;51003;51.628;6.670;2023-06-22T13:22:53;26.00;;;21.40;;
64595;SDS011;51003;51.628;6.670;2023-06-22T13:25:20;25.50;;;21.20;;
64595;SDS011;51003;51.628;6.670;2023-06-22T13:27:48;26.80;;;21.27;;
64595;SDS011;51003;51.628;6.670;2023-06-22T13:30:14;25.53;;;20.00;;
64595;SDS011;51003;51.628;6.670;2023-06-22T13:32:40;26.03;;;20.97;;
64595;SDS011;51003;51.628;6.670;2023-06-22T13:35:07;25.97;;;20.30;;
64595;SDS011;51003;51.628;6.670;2023-06-22T13:37:33;26.03;;;20.60;;
64595;SDS011;51003;51.628;6.670;2023-06-22T13:39:59;23.43;;;20.33;;
64595;SDS011;51003;51.628;6.670;2023-06-22T13:42:24;25.67;;;20.33;;
64595;SDS011;51003;51.628;6.670;2023-06-22T13:44:50;24.20;;;20.40;;
64595;SDS011;51003;51.628;6.670;2023-06-22T13:47:15;25.93;;;20.73;;
64595;SDS011;51003;51.628;6.670;2023-06-22T13:49:40;25.27;;;20.50;;
64595;SDS011;51003;51.628;6.670;2023-06-22T13:52:06;30.63;;;19.87;;
64595;SDS011;51003;51.628;6.670;2023-06-22T13:54:35;24.93;;;21.10;;
64595;SDS011;51003;51.628;6.670;2023-06-22T13:57:01;25.47;;;20.00;;
64595;SDS011;51003;51.628;6.670;2023-06-22T13:59:30;24.10;;;19.80;;
64595;SDS011;51003;51.628;6.670;2023-06-22T14:01:55;25.73;;;20.60;;
64595;SDS011;51003;51.628;6.670;2023-06-22T14:04:21;24.87;;;19.90;;
64595;SDS011;51003;51.628;6.670;2023-06-22T14:06:48;25.60;;;21.37;;
64595;SDS011;51003;51.628;6.670;2023-06-22T14:09:13;28.43;;;20.70;;
64595;SDS011;51003;51.628;6.670;2023-06-22T14:11:39;27.03;;;20.97;;
64595;SDS011;51003;51.628;6.670;2023-06-22T14:14:04;24.43;;;19.77;;
64595;SDS011;51003;51.628;6.670;2023-06-22T14:16:29;27.70;;;21.90;;
64595;SDS011;51003;51.628;6.670;2023-06-22T14:18:55;26.03;;;21.77;;
64595;SDS011;51003;51.628;6.670;2023-06-22T14:21:20;31.90;;;21.40;;
64595;SDS011;51003;51.628;6.670;2023-06-22T14:23:46;27.77;;;21.20;;
64595;SDS011;51003;51.628;6.670;2023-06-22T14:26:14;26.30;;;21.17;;